map of SID home
SID - Airport
Location
City:  Espargos, Cape Verde
Name:Amílcar Cabral International Airport
ICAO:GVAC
IATA:SID

Details
Type:Airport (Aerodrome, Airfield)
Use:Public/Civil, International (customs port of entry)
Latitude:16°44'29"N (16.741389)
Longitude:22°56'58"W (-22.949443)
Datum:WGS 1984
Elevation:177 ft (54 m)
Variation:9.14°W (WMM2015 magnetic declination)
0.12° annual change
Runways:2
Longest:10735 × 148 ft (3272 × 45 m), paved

Time
Time Zone:UTC-1
Local Time:

Weather
METAR:GVAC 192100Z 06010KT 9999 SCT014 BKN100 26/20 Q1012 NOSIG
TAF:GVAC 191100Z 1912/2018 05015KT 9999 BKN013 PROB30
TEMPO 1912/1918 05015G25KT FEW013 BKN015

Related Locations
Nearby:
Farthest:BMY: 11965 mi / 19255 km
Waala [Belep Islands Airport], Île Art, Belep Islands, NC

Find:

   beyond  
but within

Other Information
Maps:
NOTAMs:
Links:
Sources:

  
  • flag of Cape Verde
  

Sectional Chart

Flight Planning
at skyvector.com

Satellite Image

Google Maps Satellite view

 

Copyright © 2004-2018 Karl L. Swartz. All rights reserved.
The Great Circle Mapper name and logo are trademarks of the Great Circle Mapper.
All other trademarks mentioned herein belong to their respective owners.
Please see credits for attibutions and further copyright information.

  Follow gcmap on Facebook Follow gcmap on Twitter Follow gcmap on Google+ GCmap on LinkedIn

hCard Microformat

Geo Microformat